Time;durP1;ratioP1;P1;durP2;ratioP2;P2;SDS_P1;SDS_P2;PMS_P1;PMS_P2;Temp;Humidity;BMP_temperature;BMP_pressure;BME280_temperature;BME280_humidity;BME280_pressure;Samples;Min_cycle;Max_cycle;Signal;HPM_P1;HPM_P2
2022/09/18 00:00:41;;;;;;;6.22;1.55;;;12.80;99.90;;;;;;4738625;30;20427;-86
2022/09/18 00:03:07;;;;;;;7.65;0.98;;;12.70;99.90;;;;;;4738578;30;20053;-84
2022/09/18 00:05:35;;;;;;;8.38;1.00;;;12.70;99.90;;;;;;4738488;30;20055;-85
2022/09/18 00:08:01;;;;;;;9.68;0.95;;;12.70;99.90;;;;;;4737080;30;20057;-84
2022/09/18 00:10:26;;;;;;;6.60;1.08;;;12.70;99.90;;;;;;4738438;30;20106;-87
2022/09/18 00:12:52;;;;;;;8.77;1.25;;;12.70;99.90;;;;;;4737146;30;20056;-85
2022/09/18 00:15:18;;;;;;;8.00;1.35;;;12.70;99.90;;;;;;4737262;30;20056;-82
2022/09/18 00:17:43;;;;;;;11.20;1.30;;;12.70;99.90;;;;;;4738110;30;20452;-85
2022/09/18 00:20:09;;;;;;;8.43;1.35;;;12.80;99.90;;;;;;4736961;30;20110;-85
2022/09/18 00:22:35;;;;;;;10.95;1.67;;;12.80;99.90;;;;;;4737195;30;20059;-83
2022/09/18 00:25:01;;;;;;;8.88;1.08;;;12.90;99.90;;;;;;4738284;30;20413;-82
2022/09/18 00:27:26;;;;;;;6.88;0.80;;;13.00;99.90;;;;;;4738012;30;20113;-83
2022/09/18 00:29:52;;;;;;;8.65;2.08;;;13.00;99.90;;;;;;4738418;30;20052;-84
2022/09/18 00:32:18;;;;;;;5.20;0.73;;;13.00;99.90;;;;;;4738106;30;20048;-87
2022/09/18 00:34:43;;;;;;;6.75;0.95;;;13.00;99.90;;;;;;4738036;30;20056;-81
2022/09/18 00:37:09;;;;;;;9.32;0.90;;;13.00;99.90;;;;;;4737830;30;20060;-83
2022/09/18 00:39:35;;;;;;;9.05;0.80;;;13.00;99.90;;;;;;4737858;30;20095;-83
2022/09/18 00:42:00;;;;;;;6.85;0.80;;;13.00;99.90;;;;;;4737851;30;20055;-82
2022/09/18 00:44:35;;;;;;;4.78;0.57;;;13.00;99.90;;;;;;4737889;30;20092;-82
2022/09/18 00:47:21;;;;;;;5.32;0.93;;;12.90;99.90;;;;;;4735795;30;20072;-83
2022/09/18 00:50:09;;;;;;;6.35;0.90;;;13.00;99.90;;;;;;4737420;30;20089;-81
2022/09/18 00:52:56;;;;;;;5.40;1.10;;;12.90;99.90;;;;;;4736371;30;20061;-84
2022/09/18 00:55:27;;;;;;;8.70;1.10;;;13.00;99.90;;;;;;4737636;30;20496;-84
2022/09/18 00:57:56;;;;;;;12.32;1.50;;;13.00;99.90;;;;;;4737731;30;20055;-86
2022/09/18 01:00:23;;;;;;;11.38;1.45;;;13.00;99.90;;;;;;4737688;30;20072;-88
2022/09/18 01:02:49;;;;;;;7.07;1.45;;;13.00;99.90;;;;;;4737601;30;20056;-89
2022/09/18 01:05:35;;;;;;;8.02;0.77;;;13.00;99.90;;;;;;4736416;30;20056;-85
2022/09/18 01:08:24;;;;;;;14.05;1.45;;;12.90;99.90;;;;;;4737339;30;20472;-83
2022/09/18 01:10:58;;;;;;;10.88;1.15;;;12.90;99.90;;;;;;4737400;30;20405;-84
2022/09/18 01:13:44;;;;;;;8.48;1.08;;;12.90;99.90;;;;;;4736258;30;20057;-81
2022/09/18 01:16:21;;;;;;;12.15;1.40;;;13.00;99.90;;;;;;4736075;30;20053;-85
2022/09/18 01:19:04;;;;;;;8.55;1.30;;;13.00;99.90;;;;;;4737479;30;20493;-86
2022/09/18 01:21:43;;;;;;;10.35;1.48;;;12.90;99.90;;;;;;4737196;30;20052;-83
2022/09/18 01:24:46;;;;;;;6.90;1.30;;;12.90;99.90;;;;;;4737267;30;20049;-84
2022/09/18 01:27:36;;;;;;;10.82;1.55;;;13.00;99.90;;;;;;4726942;30;20502;-83
2022/09/18 01:30:10;;;;;;;10.50;1.23;;;13.00;99.90;;;;;;4737151;30;20137;-85
2022/09/18 01:33:02;;;;;;;12.65;1.15;;;13.00;99.90;;;;;;4736945;30;20072;-87
2022/09/18 01:35:51;;;;;;;9.30;1.40;;;13.00;99.90;;;;;;4736885;30;20053;-83
2022/09/18 01:38:41;;;;;;;10.43;1.60;;;13.10;99.90;;;;;;4736958;30;20060;-82
2022/09/18 01:41:26;;;;;;;12.50;1.52;;;13.10;99.90;;;;;;4735869;30;20052;-84
2022/09/18 01:44:12;;;;;;;7.57;1.20;;;13.10;99.90;;;;;;4735673;30;20059;-84
2022/09/18 01:46:41;;;;;;;5.00;1.33;;;13.10;99.90;;;;;;4735821;30;20404;-83
2022/09/18 01:49:14;;;;;;;5.53;1.13;;;13.10;99.90;;;;;;4736511;30;20053;-83
2022/09/18 01:51:44;;;;;;;;;;;13.10;99.90;;;;;;4737280;30;20073;-84
2022/09/18 01:54:15;;;;;;;8.90;1.10;;;13.00;99.90;;;;;;4736686;30;19930;-83
2022/09/18 01:57:04;;;;;;;7.68;1.42;;;12.90;99.90;;;;;;4736596;30;20472;-84
2022/09/18 01:59:41;;;;;;;8.10;1.13;;;13.00;99.90;;;;;;4736123;30;20053;-86
2022/09/18 02:02:17;;;;;;;10.88;1.70;;;13.00;99.90;;;;;;4736586;30;20052;-87
2022/09/18 02:04:44;;;;;;;12.60;1.25;;;12.90;99.90;;;;;;4736401;30;20044;-84
2022/09/18 02:07:49;;;;;;;5.50;0.90;;;12.90;99.90;;;;;;4736395;30;20059;-84
2022/09/18 02:10:16;;;;;;;9.82;1.05;;;13.00;99.90;;;;;;4735371;30;20425;-83
2022/09/18 02:12:44;;;;;;;8.35;0.90;;;13.00;99.90;;;;;;4736401;30;20055;-83
2022/09/18 02:15:13;;;;;;;9.93;1.17;;;13.00;99.90;;;;;;4736608;30;20064;-86
2022/09/18 02:17:48;;;;;;;5.40;1.00;;;13.00;99.90;;;;;;4736212;30;20459;-84
2022/09/18 02:20:27;;;;;;;7.75;1.05;;;13.00;99.90;;;;;;4736349;30;20049;-81
2022/09/18 02:22:57;;;;;;;7.85;1.17;;;13.10;99.90;;;;;;4736278;30;20132;-86
2022/09/18 02:25:29;;;;;;;6.25;1.33;;;13.10;99.90;;;;;;4735068;30;20481;-84
2022/09/18 02:27:55;;;;;;;8.40;1.10;;;13.20;99.90;;;;;;4736155;30;20052;-83
2022/09/18 02:30:22;;;;;;;11.23;1.55;;;13.20;99.90;;;;;;4736043;30;20549;-85
2022/09/18 02:32:53;;;;;;;9.88;0.65;;;13.20;99.90;;;;;;4735823;30;20044;-85
2022/09/18 02:35:19;;;;;;;8.82;1.20;;;13.20;99.90;;;;;;4734595;30;20061;-86
2022/09/18 02:38:21;;;;;;;6.43;0.95;;;13.20;99.90;;;;;;4735955;30;20068;-83
2022/09/18 02:41:12;;;;;;;5.55;0.70;;;13.10;99.90;;;;;;4723736;30;20145;-84
2022/09/18 02:44:05;;;;;;;8.38;0.98;;;13.10;99.90;;;;;;4735968;30;20053;-83
2022/09/18 02:46:41;;;;;;;21.35;3.30;;;13.20;99.90;;;;;;4736030;30;20048;-84
2022/09/18 02:49:16;;;;;;;13.85;1.85;;;13.10;99.90;;;;;;4735825;30;20091;-81
2022/09/18 02:51:58;;;;;;;6.60;0.60;;;13.00;99.90;;;;;;4735893;30;20048;-81
2022/09/18 02:54:46;;;;;;;4.88;0.60;;;12.80;99.90;;;;;;4735812;30;20053;-84
2022/09/18 02:57:20;;;;;;;5.97;0.52;;;12.60;99.90;;;;;;4735834;30;20061;-82
2022/09/18 02:59:50;;;;;;;10.80;1.60;;;12.50;99.90;;;;;;4735838;30;20064;-82
2022/09/18 03:02:17;;;;;;;7.15;0.80;;;12.30;99.90;;;;;;4735963;30;20144;-83
2022/09/18 03:04:43;;;;;;;10.13;1.00;;;12.30;99.90;;;;;;4735609;30;20052;-83
2022/09/18 03:07:09;;;;;;;8.18;0.82;;;12.20;99.90;;;;;;4734321;30;20056;-82
2022/09/18 03:09:34;;;;;;;6.57;0.70;;;12.20;99.90;;;;;;4735051;30;20063;-84
2022/09/18 03:12:01;;;;;;;7.82;1.48;;;12.30;99.90;;;;;;4734256;30;20087;-83
2022/09/18 03:14:27;;;;;;;12.02;1.45;;;12.20;99.90;;;;;;4735576;30;20070;-84
2022/09/18 03:16:53;;;;;;;5.95;0.98;;;12.30;99.90;;;;;;4735526;30;20049;-82
2022/09/18 03:19:18;;;;;;;4.93;0.43;;;12.40;99.90;;;;;;4735393;30;20139;-81
2022/09/18 03:21:45;;;;;;;6.63;0.73;;;12.30;99.90;;;;;;4734218;30;20045;-83
2022/09/18 03:24:10;;;;;;;9.90;1.33;;;12.20;99.90;;;;;;4734261;30;20063;-83
2022/09/18 03:26:37;;;;;;;4.47;0.63;;;12.20;99.90;;;;;;4735372;30;20056;-83
2022/09/18 03:29:09;;;;;;;4.13;0.90;;;12.20;99.90;;;;;;4735347;30;20064;-85
2022/09/18 03:31:35;;;;;;;9.65;0.95;;;12.20;99.90;;;;;;4734386;30;20103;-83
2022/09/18 03:34:01;;;;;;;9.65;0.93;;;12.30;99.90;;;;;;4735385;30;20421;-84
2022/09/18 03:36:26;;;;;;;4.30;0.93;;;12.30;99.90;;;;;;4735030;30;20068;-83
2022/09/18 03:38:52;;;;;;;7.63;1.15;;;12.40;99.90;;;;;;4735332;30;20099;-82
2022/09/18 03:41:18;;;;;;;8.90;1.10;;;12.50;99.90;;;;;;4734069;30;20144;-83
2022/09/18 03:43:43;;;;;;;7.85;0.90;;;12.50;99.90;;;;;;4735303;30;20139;-85
2022/09/18 03:46:09;;;;;;;7.85;0.90;;;12.50;99.90;;;;;;4735259;30;20074;-84
2022/09/18 03:48:34;;;;;;;11.98;1.35;;;12.50;99.90;;;;;;4735059;30;20112;-86
2022/09/18 03:51:00;;;;;;;6.38;1.15;;;12.50;99.90;;;;;;4735198;30;20052;-83
2022/09/18 03:53:26;;;;;;;7.20;0.77;;;12.60;99.90;;;;;;4735197;30;20102;-83
2022/09/18 03:55:51;;;;;;;15.10;1.10;;;12.60;99.90;;;;;;4735166;30;20059;-85
2022/09/18 03:58:17;;;;;;;8.07;1.38;;;12.60;99.90;;;;;;4735078;30;20503;-85
2022/09/18 04:00:44;;;;;;;5.70;1.20;;;12.60;99.90;;;;;;4735218;30;20056;-82
2022/09/18 04:03:09;;;;;;;6.18;0.75;;;12.60;99.90;;;;;;4735154;30;20060;-85
2022/09/18 04:05:35;;;;;;;5.55;0.80;;;12.60;99.90;;;;;;4733913;30;20135;-84
2022/09/18 04:08:01;;;;;;;5.35;0.60;;;12.50;99.90;;;;;;4735082;30;20088;-84
2022/09/18 04:10:26;;;;;;;12.45;1.10;;;12.50;99.90;;;;;;4733875;30;20048;-84
2022/09/18 04:12:52;;;;;;;6.93;1.27;;;12.40;99.90;;;;;;4734811;30;20056;-85
2022/09/18 04:15:18;;;;;;;7.53;0.95;;;12.40;99.90;;;;;;4733712;30;20084;-83
2022/09/18 04:17:44;;;;;;;5.45;0.75;;;12.50;99.90;;;;;;4733746;30;20111;-85
2022/09/18 04:20:10;;;;;;;9.13;0.70;;;12.50;99.90;;;;;;4733793;30;20524;-85
2022/09/18 04:22:36;;;;;;;6.32;0.93;;;12.60;99.90;;;;;;4736714;30;20532;-82
2022/09/18 04:25:03;;;;;;;10.95;1.20;;;12.50;99.90;;;;;;4738170;30;20413;-89
2022/09/18 04:27:29;;;;;;;10.50;1.27;;;12.50;99.90;;;;;;4736786;30;20056;-85
2022/09/18 04:29:54;;;;;;;9.02;1.95;;;12.60;99.90;;;;;;4738178;30;20095;-86
2022/09/18 04:32:20;;;;;;;5.60;0.90;;;12.70;99.90;;;;;;4736661;30;20059;-85
2022/09/18 04:34:46;;;;;;;5.05;0.70;;;12.70;99.90;;;;;;4738096;30;20052;-83
2022/09/18 04:37:11;;;;;;;6.68;0.70;;;12.70;99.90;;;;;;4736756;30;20060;-84
2022/09/18 04:39:37;;;;;;;6.80;0.57;;;12.70;99.90;;;;;;4737970;30;20496;-85
2022/09/18 04:42:03;;;;;;;21.33;2.40;;;12.70;99.90;;;;;;4738089;30;20053;-83
2022/09/18 04:44:29;;;;;;;22.50;3.83;;;12.80;99.90;;;;;;4736928;30;20045;-80
2022/09/18 04:46:55;;;;;;;18.60;2.80;;;12.70;99.90;;;;;;4737845;30;20574;-79
2022/09/18 04:49:21;;;;;;;10.43;1.35;;;12.50;99.90;;;;;;4737973;30;20056;-78
2022/09/18 04:51:46;;;;;;;10.18;1.17;;;12.30;99.90;;;;;;4737726;30;20057;-79
2022/09/18 04:54:12;;;;;;;10.00;0.85;;;12.20;99.90;;;;;;4736497;30;20524;-79
2022/09/18 04:56:39;;;;;;;13.23;1.00;;;12.10;99.90;;;;;;4736281;30;20529;-79
2022/09/18 04:59:05;;;;;;;12.85;1.02;;;12.00;99.90;;;;;;4737668;30;20081;-83
2022/09/18 05:01:31;;;;;;;7.35;1.23;;;12.00;99.90;;;;;;4737665;30;20529;-79
2022/09/18 05:03:56;;;;;;;9.52;1.20;;;12.00;99.90;;;;;;4737439;30;20175;-80
2022/09/18 05:06:23;;;;;;;12.30;0.85;;;12.00;99.90;;;;;;4737534;30;20596;-80
2022/09/18 05:08:48;;;;;;;8.88;1.05;;;12.00;99.90;;;;;;4737169;30;20456;-81
2022/09/18 05:11:14;;;;;;;10.68;1.00;;;12.00;99.90;;;;;;4736323;30;20052;-81
2022/09/18 05:13:40;;;;;;;8.50;1.15;;;12.00;99.90;;;;;;4736957;30;20067;-79
2022/09/18 05:16:06;;;;;;;6.72;1.00;;;12.00;99.90;;;;;;4736077;30;20422;-80
2022/09/18 05:18:32;;;;;;;9.38;1.45;;;12.00;99.90;;;;;;4737106;30;20379;-81
2022/09/18 05:21:01;;;;;;;8.70;0.98;;;12.00;99.90;;;;;;4735978;30;20511;-82
2022/09/18 05:23:27;;;;;;;7.68;0.93;;;12.10;99.90;;;;;;4736256;30;20056;-79
2022/09/18 05:25:53;;;;;;;20.45;1.90;;;12.10;99.90;;;;;;4736672;30;20053;-81
2022/09/18 05:28:18;;;;;;;8.05;0.88;;;12.10;99.90;;;;;;4734574;30;20118;-83
2022/09/18 05:30:44;;;;;;;9.38;1.00;;;12.00;99.90;;;;;;4734849;30;20052;-81
2022/09/18 05:33:10;;;;;;;10.10;1.27;;;11.90;99.90;;;;;;4735429;30;20084;-82
2022/09/18 05:35:38;;;;;;;10.05;1.50;;;11.90;99.90;;;;;;4734851;30;20091;-81
2022/09/18 05:38:05;;;;;;;14.07;1.13;;;11.90;99.90;;;;;;4736913;30;20520;-82
2022/09/18 05:40:33;;;;;;;10.93;1.30;;;12.00;99.90;;;;;;4736787;30;20051;-83
2022/09/18 05:43:01;;;;;;;8.13;1.00;;;12.10;99.90;;;;;;4735886;30;20053;-82
2022/09/18 05:48:01;;;;;;;11.55;1.42;;;12.10;99.90;;;;;;4752856;30;20064;-78
2022/09/18 05:50:28;;;;;;;13.15;2.25;;;12.10;99.90;;;;;;4753184;30;20052;-83
2022/09/18 05:53:10;;;;;;;9.65;0.85;;;11.90;99.90;;;;;;4754468;30;20463;-81
2022/09/18 05:55:35;;;;;;;7.28;0.82;;;11.90;99.90;;;;;;4754183;30;20061;-82
2022/09/18 05:58:03;;;;;;;5.68;0.35;;;11.70;99.90;;;;;;4754108;30;20058;-82
2022/09/18 06:00:31;;;;;;;9.05;0.85;;;11.60;99.90;;;;;;4754247;30;20059;-83
2022/09/18 06:03:02;;;;;;;6.43;0.65;;;11.60;99.90;;;;;;4753837;30;20063;-83
2022/09/18 06:05:30;;;;;;;6.05;0.90;;;11.60;99.90;;;;;;4754089;30;20044;-86
2022/09/18 06:08:00;;;;;;;7.15;0.90;;;11.60;99.90;;;;;;4752588;30;20455;-85
2022/09/18 06:10:27;;;;;;;13.27;1.73;;;11.60;99.90;;;;;;4754067;30;20085;-85
2022/09/18 06:13:04;;;;;;;6.28;0.90;;;11.70;99.90;;;;;;4753789;30;20050;-84
2022/09/18 06:15:30;;;;;;;6.53;0.82;;;11.70;99.90;;;;;;4753795;30;20139;-83
2022/09/18 06:17:55;;;;;;;15.52;1.45;;;11.70;99.90;;;;;;4752773;30;20132;-85
2022/09/18 06:20:21;;;;;;;4.95;1.40;;;11.80;99.90;;;;;;4752754;30;20106;-86
2022/09/18 06:22:47;;;;;;;7.97;1.13;;;11.80;99.90;;;;;;4753758;30;20556;-88
2022/09/18 06:25:12;;;;;;;10.35;1.55;;;11.90;99.90;;;;;;4753723;30;20058;-84
2022/09/18 06:27:38;;;;;;;7.90;0.85;;;12.00;99.90;;;;;;4753488;30;20105;-86
2022/09/18 06:30:04;;;;;;;5.05;0.68;;;12.10;99.90;;;;;;4753742;30;20055;-84
2022/09/18 06:32:30;;;;;;;6.65;0.82;;;12.10;99.90;;;;;;4753705;30;20143;-85
2022/09/18 06:34:56;;;;;;;8.10;0.90;;;12.20;99.90;;;;;;4753557;30;20218;-85
2022/09/18 06:37:21;;;;;;;6.50;0.70;;;12.20;99.90;;;;;;4753689;30;20381;-85
2022/09/18 06:39:47;;;;;;;3.75;0.68;;;12.20;99.90;;;;;;4753592;30;20550;-83
2022/09/18 06:42:14;;;;;;;9.00;1.00;;;12.40;99.90;;;;;;4752343;30;20072;-81
2022/09/18 06:44:40;;;;;;;7.78;0.77;;;12.40;99.90;;;;;;4753145;30;20141;-84
2022/09/18 06:47:06;;;;;;;5.40;0.85;;;12.40;99.90;;;;;;4752970;30;20113;-85
2022/09/18 06:49:33;;;;;;;7.32;0.65;;;12.50;99.90;;;;;;4751966;30;20419;-86
2022/09/18 06:51:58;;;;;;;5.35;0.57;;;12.50;99.90;;;;;;4751912;30;20048;-85
2022/09/18 06:54:24;;;;;;;4.82;0.60;;;12.60;99.90;;;;;;4751983;30;20088;-85
2022/09/18 06:56:50;;;;;;;6.90;0.80;;;12.50;99.90;;;;;;4752000;30;20103;-84
2022/09/18 06:59:15;;;;;;;5.13;0.70;;;12.60;99.90;;;;;;4751983;30;20484;-83
2022/09/18 07:01:41;;;;;;;6.80;0.95;;;12.60;99.90;;;;;;4746091;30;20055;-81
2022/09/18 07:04:06;;;;;;;6.20;0.95;;;12.50;99.90;;;;;;4741979;30;20052;-83
2022/09/18 07:06:32;;;;;;;5.53;0.57;;;12.60;99.90;;;;;;4735296;30;20102;-84
2022/09/18 07:08:58;;;;;;;7.55;0.80;;;12.60;99.90;;;;;;4733919;30;20061;-83
2022/09/18 07:11:23;;;;;;;3.42;0.52;;;12.60;99.90;;;;;;4733938;30;20132;-82
2022/09/18 07:13:50;;;;;;;6.50;1.35;;;12.60;99.90;;;;;;4733824;30;20056;-80
2022/09/18 07:16:16;;;;;;;6.90;1.35;;;12.70;99.90;;;;;;4734122;30;20059;-84
2022/09/18 07:18:42;;;;;;;5.68;0.77;;;12.70;99.90;;;;;;4733847;30;20413;-83
2022/09/18 07:21:08;;;;;;;8.30;1.73;;;12.60;99.90;;;;;;4734079;30;20064;-85
2022/09/18 07:23:34;;;;;;;7.22;0.80;;;12.60;99.90;;;;;;4734967;30;20099;-83
2022/09/18 07:26:01;;;;;;;5.60;0.63;;;12.60;99.90;;;;;;4734096;30;20581;-84
2022/09/18 07:28:27;;;;;;;7.95;0.80;;;12.50;99.90;;;;;;4733678;30;20477;-85
2022/09/18 07:30:52;;;;;;;8.82;0.80;;;12.40;99.90;;;;;;4733710;30;20056;-82
2022/09/18 07:33:20;;;;;;;8.50;1.33;;;12.40;99.90;;;;;;4735139;30;20139;-83
2022/09/18 07:35:46;;;;;;;4.80;0.70;;;12.30;99.90;;;;;;4734870;30;20531;-83
2022/09/18 07:38:12;;;;;;;7.57;1.00;;;12.30;99.90;;;;;;4733616;30;20060;-82
2022/09/18 07:40:41;;;;;;;9.27;1.20;;;12.30;99.90;;;;;;4733886;30;20049;-79
2022/09/18 07:43:09;;;;;;;11.20;1.02;;;12.20;99.90;;;;;;4735019;30;20060;-80
2022/09/18 07:45:35;;;;;;;9.57;1.10;;;12.20;99.90;;;;;;4735019;30;20091;-81
2022/09/18 07:48:06;;;;;;;8.52;1.25;;;12.20;99.90;;;;;;4733492;30;20409;-81
2022/09/18 07:50:32;;;;;;;7.93;1.50;;;12.10;99.90;;;;;;4734969;30;20056;-80
2022/09/18 07:53:01;;;;;;;12.75;1.20;;;12.10;99.90;;;;;;4734751;30;20456;-80
2022/09/18 07:55:27;;;;;;;9.82;1.02;;;12.10;99.90;;;;;;4733517;30;20059;-80
2022/09/18 07:57:56;;;;;;;5.38;0.70;;;12.20;99.90;;;;;;4746361;30;20053;-82
2022/09/18 08:00:23;;;;;;;3.38;0.90;;;12.20;99.90;;;;;;4738110;30;20382;-81
2022/09/18 08:02:49;;;;;;;5.95;0.80;;;12.20;99.90;;;;;;4737151;30;20074;-81
2022/09/18 08:05:14;;;;;;;6.85;0.90;;;12.20;99.90;;;;;;4738123;30;20110;-82
2022/09/18 08:07:40;;;;;;;6.35;0.80;;;12.20;99.90;;;;;;4736761;30;20421;-81
2022/09/18 08:10:06;;;;;;;8.50;1.05;;;12.20;99.90;;;;;;4738172;30;20110;-84
2022/09/18 08:12:32;;;;;;;11.02;1.30;;;12.20;99.90;;;;;;4738194;30;20123;-82
2022/09/18 08:14:58;;;;;;;3.33;0.98;;;12.30;99.90;;;;;;4749488;30;20136;-83
2022/09/18 08:17:24;;;;;;;6.20;0.75;;;12.30;99.90;;;;;;4757901;30;20069;-84
2022/09/18 08:19:50;;;;;;;7.25;1.20;;;12.30;99.90;;;;;;4762667;30;20118;-82
2022/09/18 08:22:16;;;;;;;9.85;1.40;;;12.40;99.90;;;;;;4768268;30;20059;-83
2022/09/18 08:24:41;;;;;;;9.73;1.35;;;12.40;99.90;;;;;;4773077;30;20100;-83
2022/09/18 08:27:07;;;;;;;6.80;1.00;;;12.40;99.90;;;;;;4773041;30;20527;-81
2022/09/18 08:29:33;;;;;;;10.48;1.20;;;12.40;99.90;;;;;;4772135;30;20499;-82
2022/09/18 08:31:58;;;;;;;9.63;0.93;;;12.30;99.90;;;;;;4772070;30;20059;-80
2022/09/18 08:34:24;;;;;;;13.27;1.45;;;12.30;99.90;;;;;;4773038;30;20052;-83
2022/09/18 08:36:50;;;;;;;12.93;1.55;;;12.30;99.90;;;;;;4773225;30;20058;-83
2022/09/18 08:39:15;;;;;;;12.48;1.75;;;12.20;99.90;;;;;;4771653;30;20519;-81
2022/09/18 08:41:53;;;;;;;17.35;1.40;;;12.10;99.90;;;;;;4771714;30;20062;-80
2022/09/18 08:44:23;;;;;;;15.40;1.77;;;12.00;99.90;;;;;;4772829;30;20493;-80
2022/09/18 08:46:56;;;;;;;19.45;3.50;;;12.00;99.90;;;;;;4771567;30;20067;-80
2022/09/18 08:49:31;;;;;;;6.75;1.00;;;11.90;99.90;;;;;;4772756;30;20056;-80
2022/09/18 08:52:20;;;;;;;11.07;1.30;;;12.00;99.90;;;;;;4771820;30;20063;-80
2022/09/18 08:55:03;;;;;;;8.27;1.73;;;12.00;99.90;;;;;;4771615;30;20091;-81
2022/09/18 08:57:32;;;;;;;;;;;12.10;99.90;;;;;;4772112;30;20400;-80
2022/09/18 09:00:14;;;;;;;7.70;1.42;;;12.10;99.90;;;;;;4772772;30;19925;-81
2022/09/18 09:02:49;;;;;;;11.07;1.08;;;12.20;99.90;;;;;;4771623;30;20534;-80
2022/09/18 09:05:19;;;;;;;7.10;1.23;;;12.30;99.90;;;;;;4772836;30;20131;-81
2022/09/18 09:08:12;;;;;;;6.60;0.85;;;12.30;99.90;;;;;;4771814;30;20044;-81
2022/09/18 09:11:01;;;;;;;11.20;2.10;;;12.30;99.90;;;;;;4772590;30;20510;-84
2022/09/18 09:13:40;;;;;;;6.85;0.63;;;12.50;99.90;;;;;;4772700;30;20075;-80
2022/09/18 09:16:17;;;;;;;7.22;0.98;;;12.50;99.90;;;;;;4761158;30;20096;-82
2022/09/18 09:19:16;;;;;;;3.53;0.50;;;12.50;99.90;;;;;;4754584;30;20083;-82
2022/09/18 09:22:01;;;;;;;7.35;0.68;;;12.50;99.90;;;;;;4754718;30;20136;-83
2022/09/18 09:24:35;;;;;;;7.30;0.80;;;12.60;99.90;;;;;;4755513;30;20080;-82
2022/09/18 09:27:36;;;;;;;2.78;0.55;;;12.60;99.90;;;;;;4748812;30;20047;-84
2022/09/18 09:30:10;;;;;;;6.07;1.02;;;12.60;99.90;;;;;;4727327;30;20139;-83
2022/09/18 09:32:42;;;;;;;6.85;0.70;;;12.60;99.90;;;;;;4750176;30;20505;-84
2022/09/18 09:35:26;;;;;;;6.90;1.20;;;12.70;99.90;;;;;;4750135;30;20058;-83
2022/09/18 09:37:52;;;;;;;8.57;1.05;;;12.70;99.90;;;;;;4750092;30;20063;-82
2022/09/18 09:40:31;;;;;;;5.80;0.70;;;12.80;99.90;;;;;;4736659;30;20062;-83
2022/09/18 09:43:18;;;;;;;7.95;0.70;;;12.90;99.90;;;;;;4750197;30;20056;-83
2022/09/18 09:45:47;;;;;;;6.55;0.93;;;12.90;99.90;;;;;;4696357;30;20060;-83
2022/09/18 09:48:16;;;;;;;6.53;1.50;;;13.00;99.90;;;;;;4744245;30;20413;-83
2022/09/18 09:50:54;;;;;;;8.50;1.20;;;13.00;99.90;;;;;;4736271;30;20175;-84
2022/09/18 09:53:23;;;;;;;6.45;0.90;;;13.00;99.90;;;;;;4735081;30;20057;-85
2022/09/18 09:56:06;;;;;;;8.35;1.77;;;13.10;99.90;;;;;;4736270;30;20060;-85
2022/09/18 09:59:06;;;;;;;9.98;1.88;;;13.10;99.90;;;;;;4735466;30;20044;-82
2022/09/18 10:01:39;;;;;;;4.78;0.93;;;13.20;99.90;;;;;;4736128;30;20512;-83
2022/09/18 10:04:47;;;;;;;9.07;1.35;;;13.20;99.90;;;;;;4734894;30;20055;-83
2022/09/18 10:07:24;;;;;;;8.35;1.17;;;13.20;99.90;;;;;;4710006;30;20068;-84
2022/09/18 10:10:14;;;;;;;8.70;1.20;;;13.20;99.90;;;;;;4736308;30;20040;-87
2022/09/18 10:13:00;;;;;;;9.48;1.35;;;13.30;99.90;;;;;;4735992;30;20524;-83
2022/09/18 10:15:45;;;;;;;7.65;1.15;;;13.30;99.90;;;;;;4734999;30;20057;-86
2022/09/18 10:18:24;;;;;;;9.02;1.92;;;13.30;99.90;;;;;;4734756;30;20599;-83
2022/09/18 10:20:56;;;;;;;8.85;1.20;;;13.30;99.90;;;;;;4735830;30;20386;-84
2022/09/18 10:23:29;;;;;;;7.15;1.80;;;13.40;99.90;;;;;;4734522;30;20053;-84
2022/09/18 10:25:58;;;;;;;7.75;1.25;;;13.40;99.90;;;;;;4737256;30;20127;-85
2022/09/18 10:28:28;;;;;;;10.60;1.30;;;13.40;99.90;;;;;;4744023;30;20118;-84
2022/09/18 10:31:11;;;;;;;7.95;1.20;;;13.40;99.90;;;;;;4734674;30;20077;-87
2022/09/18 10:33:38;;;;;;;5.35;0.75;;;13.50;99.90;;;;;;4734509;30;20053;-85
2022/09/18 10:36:18;;;;;;;3.72;1.30;;;13.60;99.90;;;;;;4735591;30;20064;-90
2022/09/18 10:38:45;;;;;;;6.57;1.20;;;13.60;99.90;;;;;;4735659;30;20053;-83
2022/09/18 10:41:26;;;;;;;7.57;1.20;;;13.60;99.90;;;;;;4735616;30;20121;-84
2022/09/18 10:43:51;;;;;;;11.50;1.60;;;13.70;99.90;;;;;;4735881;30;20053;-84
2022/09/18 10:46:24;;;;;;;6.63;0.82;;;13.80;99.90;;;;;;4734315;30;20141;-84
2022/09/18 10:48:50;;;;;;;8.48;0.70;;;13.90;99.90;;;;;;4735675;30;20061;-83
2022/09/18 10:51:20;;;;;;;7.88;0.98;;;13.90;99.90;;;;;;4734055;30;20401;-88
2022/09/18 10:54:18;;;;;;;8.93;1.17;;;13.90;99.90;;;;;;4732990;30;20053;-86
2022/09/18 10:56:47;;;;;;;8.70;1.10;;;14.00;99.90;;;;;;4733934;30;20056;-86
2022/09/18 10:59:32;;;;;;;10.40;1.20;;;14.00;99.90;;;;;;4734394;30;20084;-87
2022/09/18 11:02:00;;;;;;;6.40;1.45;;;14.00;99.90;;;;;;4734284;30;20513;-83
2022/09/18 11:04:27;;;;;;;6.57;1.10;;;14.10;99.90;;;;;;4734607;30;20060;-88
2022/09/18 11:06:55;;;;;;;6.70;1.13;;;14.10;99.90;;;;;;4734039;30;20057;-88
2022/09/18 11:09:31;;;;;;;4.85;1.00;;;14.10;99.90;;;;;;4733826;30;20409;-83
2022/09/18 11:11:57;;;;;;;9.93;1.02;;;14.10;99.90;;;;;;4734474;30;20045;-90
2022/09/18 11:14:31;;;;;;;6.50;1.15;;;14.20;99.90;;;;;;4734263;30;20052;-83
2022/09/18 11:17:00;;;;;;;8.60;0.98;;;14.20;99.90;;;;;;4735343;30;20049;-84
2022/09/18 11:19:37;;;;;;;5.05;1.10;;;14.10;99.90;;;;;;4734055;30;20091;-81
2022/09/18 11:22:25;;;;;;;8.95;1.38;;;14.20;99.90;;;;;;4734269;30;20064;-85
2022/09/18 11:25:07;;;;;;;10.73;3.28;;;14.30;99.90;;;;;;4733803;30;20378;-86
2022/09/18 11:27:49;;;;;;;11.97;2.53;;;14.30;99.90;;;;;;4734921;30;20463;-85
2022/09/18 11:30:23;;;;;;;8.68;1.25;;;14.30;99.90;;;;;;4735304;30;20048;-85
2022/09/18 11:33:11;;;;;;;5.00;0.82;;;14.40;99.90;;;;;;4733819;30;20084;-85
2022/09/18 11:35:44;;;;;;;9.77;1.17;;;14.40;99.90;;;;;;4734365;30;20092;-83
2022/09/18 11:38:14;;;;;;;4.53;0.52;;;14.40;99.90;;;;;;4735058;30;20081;-83
2022/09/18 11:40:47;;;;;;;4.88;0.98;;;14.40;99.90;;;;;;4734066;30;20049;-88
2022/09/18 11:43:42;;;;;;;8.75;1.00;;;14.40;99.90;;;;;;4733843;30;20494;-86
2022/09/18 11:46:41;;;;;;;4.32;0.98;;;14.30;99.90;;;;;;4735719;30;20144;-91
2022/09/18 11:49:15;;;;;;;7.00;1.55;;;14.40;99.90;;;;;;4733766;30;20488;-85
2022/09/18 11:52:20;;;;;;;8.82;1.80;;;14.30;99.90;;;;;;4734128;30;20063;-87
2022/09/18 11:54:55;;;;;;;13.30;1.67;;;14.30;99.90;;;;;;4734885;30;20056;-86
2022/09/18 11:57:46;;;;;;;4.43;1.48;;;14.30;99.90;;;;;;4733613;30;20056;-85
2022/09/18 12:00:17;;;;;;;11.35;1.08;;;14.30;99.90;;;;;;4735131;30;20401;-84
2022/09/18 12:02:58;;;;;;;9.45;2.15;;;14.40;99.90;;;;;;4733519;30;20410;-87
2022/09/18 12:05:39;;;;;;;7.75;1.13;;;14.30;99.90;;;;;;4733508;30;20504;-84
2022/09/18 12:08:14;;;;;;;15.70;2.25;;;14.20;99.90;;;;;;4733556;30;20191;-87
2022/09/18 12:10:49;;;;;;;7.25;1.70;;;14.10;99.90;;;;;;4733856;30;20180;-85
2022/09/18 12:13:32;;;;;;;5.95;1.42;;;13.80;99.90;;;;;;4734046;30;20413;-85
2022/09/18 12:16:02;;;;;;;6.95;1.65;;;13.60;99.90;;;;;;4734876;30;20135;-84
2022/09/18 12:18:47;;;;;;;7.40;1.10;;;13.50;99.90;;;;;;4734752;30;20196;-85
2022/09/18 12:21:17;;;;;;;10.20;1.55;;;13.50;99.90;;;;;;4734776;30;20052;-87
2022/09/18 12:23:45;;;;;;;6.25;1.10;;;13.50;99.90;;;;;;4734921;30;20076;-84
2022/09/18 12:26:37;;;;;;;5.57;1.02;;;13.70;99.90;;;;;;4733384;30;20501;-84
2022/09/18 12:29:15;;;;;;;10.43;1.35;;;13.80;99.90;;;;;;4733830;30;20132;-84
2022/09/18 12:31:46;;;;;;;8.75;1.48;;;13.90;99.90;;;;;;4734747;30;20515;-85
2022/09/18 12:34:25;;;;;;;12.75;2.10;;;14.00;99.90;;;;;;4734680;30;20110;-83
2022/09/18 12:37:32;;;;;;;8.65;1.70;;;14.00;99.90;;;;;;4733619;30;20061;-86
2022/09/18 12:40:26;;;;;;;10.68;1.23;;;14.10;99.90;;;;;;4733497;30;20052;-84
2022/09/18 12:43:04;;;;;;;;;;;14.20;99.90;;;;;;4734024;30;20057;-88
2022/09/18 12:48:43;;;;;;;15.68;2.70;;;14.30;99.90;;;;;;4734918;30;20072;-83
2022/09/18 12:52:03;;;;;;;8.43;1.50;;;14.30;99.90;;;;;;4736355;30;20059;-82
2022/09/18 12:55:07;;;;;;;5.35;1.00;;;14.40;99.90;;;;;;4735655;30;20134;-82
2022/09/18 12:58:03;;;;;;;11.13;1.23;;;14.40;99.90;;;;;;4736508;30;20467;-85
2022/09/18 13:00:33;;;;;;;9.50;0.77;;;14.40;99.90;;;;;;4725267;30;20064;-84
2022/09/18 13:03:20;;;;;;;9.00;1.00;;;14.30;99.90;;;;;;4736175;30;20048;-84
2022/09/18 13:05:59;;;;;;;11.52;0.88;;;14.20;99.90;;;;;;4736180;30;20052;-82
2022/09/18 13:08:43;;;;;;;10.38;1.10;;;13.90;99.90;;;;;;4736164;30;20056;-86
2022/09/18 13:11:16;;;;;;;;;;;13.80;99.90;;;;;;4736721;30;20118;-81
2022/09/18 13:14:17;;;;;;;10.57;2.00;;;13.70;99.90;;;;;;4736286;30;19923;-85
2022/09/18 13:16:48;;;;;;;5.75;1.30;;;13.60;99.90;;;;;;4732427;30;20090;-84
2022/09/18 13:19:27;;;;;;;8.57;1.20;;;13.60;99.90;;;;;;4737341;30;20056;-86